createdAt,value
2018-03-28T00:00:54.961Z,23.65
2018-03-28T00:03:22.481Z,26.90
2018-03-28T00:05:50.750Z,30.12
2018-03-28T00:08:19.063Z,25.27
2018-03-28T00:10:46.585Z,22.15
2018-03-28T00:13:14.110Z,23.48
2018-03-28T00:15:41.631Z,27.13
2018-03-28T00:18:09.166Z,26.42
2018-03-28T00:20:36.655Z,28.03
2018-03-28T00:23:04.152Z,24.35
2018-03-28T00:25:31.663Z,27.52
2018-03-28T00:27:59.183Z,28.77
2018-03-28T00:30:26.673Z,25.75
2018-03-28T00:32:54.203Z,25.40
2018-03-28T00:35:21.703Z,26.75
2018-03-28T00:37:49.221Z,24.10
2018-03-28T00:40:16.721Z,24.33
2018-03-28T00:42:44.243Z,22.30
2018-03-28T00:45:11.740Z,21.20
2018-03-28T00:47:39.262Z,25.08
2018-03-28T00:50:06.756Z,20.98
2018-03-28T00:52:34.284Z,25.12
2018-03-28T00:55:02.542Z,21.55
2018-03-28T00:57:30.061Z,23.62
2018-03-28T00:59:57.575Z,21.05
2018-03-28T01:02:25.897Z,23.73
2018-03-28T01:04:53.412Z,25.52
2018-03-28T01:07:20.928Z,22.42
2018-03-28T01:09:48.486Z,24.87
2018-03-28T01:12:15.988Z,23.33
2018-03-28T01:14:43.476Z,21.73
2018-03-28T01:17:11.059Z,27.48
2018-03-28T01:19:38.505Z,23.02
2018-03-28T01:22:06.009Z,23.12
2018-03-28T01:24:33.497Z,25.42
2018-03-28T01:27:01.018Z,24.58
2018-03-28T01:29:28.526Z,24.02
2018-03-28T01:31:56.070Z,23.65
2018-03-28T01:34:24.344Z,22.00
2018-03-28T01:36:51.860Z,23.45
2018-03-28T01:39:19.374Z,22.27
2018-03-28T01:41:46.904Z,22.55
2018-03-28T01:44:15.214Z,24.10
2018-03-28T01:46:42.734Z,21.98
2018-03-28T01:49:10.223Z,24.35
2018-03-28T01:51:37.754Z,23.00
2018-03-28T01:54:05.255Z,27.70
2018-03-28T01:56:32.754Z,25.35
2018-03-28T01:59:00.291Z,22.40
2018-03-28T02:01:27.783Z,23.33
2018-03-28T02:03:55.298Z,22.77
2018-03-28T02:06:22.824Z,23.92
2018-03-28T02:08:50.347Z,22.57
2018-03-28T02:11:17.867Z,24.10
2018-03-28T02:13:45.369Z,22.35
2018-03-28T02:16:12.909Z,22.85
2018-03-28T02:18:40.422Z,23.20
2018-03-28T02:21:07.922Z,20.65
2018-03-28T02:23:35.431Z,22.87
2018-03-28T02:26:03.690Z,21.73
2018-03-28T02:28:31.983Z,20.60
2018-03-28T02:31:00.242Z,15.65
2018-03-28T02:33:28.548Z,19.35
2018-03-28T02:35:56.080Z,20.40
2018-03-28T02:38:23.584Z,21.75
2018-03-28T02:40:51.109Z,20.55
2018-03-28T02:43:19.383Z,20.57
2018-03-28T02:45:47.670Z,19.52
2018-03-28T02:48:15.207Z,21.00
2018-03-28T02:50:43.477Z,21.40
2018-03-28T02:53:10.993Z,17.75
2018-03-28T02:55:38.521Z,23.35
2018-03-28T02:58:06.030Z,20.50
2018-03-28T03:00:33.547Z,18.98
2018-03-28T03:03:01.067Z,20.05
2018-03-28T03:05:28.592Z,21.00
2018-03-28T03:07:56.101Z,21.20
2018-03-28T03:10:24.401Z,19.83
2018-03-28T03:12:51.914Z,20.92
2018-03-28T03:15:19.418Z,19.65
2018-03-28T03:17:46.945Z,18.12
2018-03-28T03:20:15.198Z,22.55
2018-03-28T03:22:42.718Z,16.77
2018-03-28T03:25:10.247Z,20.90
2018-03-28T03:27:38.539Z,18.37
2018-03-28T03:30:06.063Z,17.80
2018-03-28T03:32:33.577Z,16.13
2018-03-28T03:35:01.087Z,13.57
2018-03-28T03:37:28.614Z,14.23
2018-03-28T03:39:56.142Z,19.17
2018-03-28T03:42:23.655Z,15.82
2018-03-28T03:44:51.141Z,15.65
2018-03-28T03:47:18.658Z,15.98
2018-03-28T03:49:46.163Z,17.77
2018-03-28T03:52:13.689Z,17.40
2018-03-28T03:54:41.227Z,16.12
2018-03-28T03:57:08.729Z,14.63
2018-03-28T03:59:37.020Z,17.62
2018-03-28T04:02:04.530Z,16.40
2018-03-28T04:04:32.061Z,19.33
2018-03-28T04:06:59.578Z,16.83
2018-03-28T04:09:27.863Z,17.73
2018-03-28T04:11:55.377Z,17.45
2018-03-28T04:14:22.893Z,21.33
2018-03-28T04:16:50.387Z,20.50
2018-03-28T04:19:17.910Z,14.52
2018-03-28T04:21:45.427Z,25.37
2018-03-28T04:24:12.974Z,20.95
2018-03-28T04:26:40.501Z,22.00
2018-03-28T04:29:08.037Z,27.70
2018-03-28T04:31:35.550Z,19.85
2018-03-28T04:34:03.058Z,21.52
2018-03-28T04:36:30.586Z,14.63
2018-03-28T04:38:58.913Z,15.90
2018-03-28T04:41:26.436Z,17.90
2018-03-28T04:43:53.954Z,16.48
2018-03-28T04:46:21.450Z,19.98
2018-03-28T04:48:49.003Z,17.50
2018-03-28T04:51:17.290Z,27.65
2018-03-28T04:53:45.568Z,18.27
2018-03-28T04:56:13.882Z,21.73
2018-03-28T04:58:41.406Z,18.23
2018-03-28T05:01:08.976Z,17.70
2018-03-28T05:03:36.490Z,21.55
2018-03-28T05:06:03.994Z,19.27
2018-03-28T05:08:31.519Z,23.58
2018-03-28T05:10:59.802Z,19.70
2018-03-28T05:13:28.096Z,21.70
2018-03-28T05:15:55.677Z,18.77
2018-03-28T05:18:23.177Z,19.23
2018-03-28T05:20:50.810Z,22.27
2018-03-28T05:23:18.375Z,19.10
2018-03-28T05:25:45.892Z,21.20
2018-03-28T05:28:13.421Z,17.57
2018-03-28T05:30:40.920Z,21.43
2018-03-28T05:33:08.451Z,16.92
2018-03-28T05:35:35.960Z,21.00
2018-03-28T05:38:03.488Z,15.68
2018-03-28T05:40:30.992Z,16.73
2018-03-28T05:42:58.484Z,13.70
2018-03-28T05:45:26.035Z,15.73
2018-03-28T05:47:54.328Z,16.25
2018-03-28T05:50:22.676Z,20.05
2018-03-28T05:52:50.133Z,13.55
2018-03-28T05:55:17.665Z,16.55
2018-03-28T05:57:45.171Z,15.60
2018-03-28T06:00:13.496Z,17.45
2018-03-28T06:02:41.013Z,17.50
2018-03-28T06:05:08.524Z,16.02
2018-03-28T06:07:36.052Z,15.90
2018-03-28T06:10:03.581Z,12.17
2018-03-28T06:12:31.889Z,12.23
2018-03-28T06:14:59.453Z,13.38
2018-03-28T06:17:26.931Z,9.77
2018-03-28T06:19:54.461Z,11.75
2018-03-28T06:22:21.990Z,11.70
2018-03-28T06:24:50.284Z,12.60
2018-03-28T06:27:17.839Z,14.03
2018-03-28T06:29:46.142Z,13.90
2018-03-28T06:32:13.680Z,12.40
2018-03-28T06:34:41.962Z,11.83
2018-03-28T06:37:09.486Z,12.93
2018-03-28T06:39:37.034Z,10.87
2018-03-28T06:42:04.506Z,9.40
2018-03-28T06:44:32.026Z,13.13
2018-03-28T06:46:59.543Z,13.80
2018-03-28T06:49:27.839Z,16.20
2018-03-28T06:51:55.358Z,14.43
2018-03-28T06:54:22.871Z,14.30
2018-03-28T06:56:50.412Z,11.87
2018-03-28T06:59:17.953Z,15.90
2018-03-28T07:01:46.226Z,10.00
2018-03-28T07:04:14.501Z,9.63
2018-03-28T07:06:42.886Z,17.50
2018-03-28T07:09:11.150Z,9.17
2018-03-28T07:11:39.413Z,8.97
2018-03-28T07:14:06.927Z,6.50
2018-03-28T07:16:34.418Z,8.60
2018-03-28T07:19:01.921Z,10.07
2018-03-28T07:21:29.461Z,8.00
2018-03-28T07:23:56.989Z,12.10
2018-03-28T07:26:24.533Z,10.93
2018-03-28T07:28:52.066Z,12.50
2018-03-28T07:31:19.622Z,15.73
2018-03-28T07:33:47.119Z,11.17
2018-03-28T07:36:14.628Z,7.03
2018-03-28T07:38:42.905Z,7.90
2018-03-28T07:41:10.415Z,9.67
2018-03-28T07:43:37.935Z,10.10
2018-03-28T07:46:05.480Z,8.73
2018-03-28T07:48:32.973Z,9.07
2018-03-28T07:51:00.510Z,7.43
2018-03-28T07:53:28.019Z,9.10
2018-03-28T07:55:55.572Z,7.77
2018-03-28T07:58:23.072Z,6.30
2018-03-28T08:00:50.602Z,8.10
2018-03-28T08:03:18.130Z,6.13
2018-03-28T08:05:45.612Z,9.57
2018-03-28T08:08:13.159Z,10.23
2018-03-28T08:10:40.687Z,4.83
2018-03-28T08:13:08.208Z,6.07
2018-03-28T08:15:35.747Z,9.60
2018-03-28T08:18:03.247Z,8.23
2018-03-28T08:20:30.747Z,7.13
2018-03-28T08:22:58.359Z,8.17
2018-03-28T08:25:26.623Z,6.30
2018-03-28T08:27:54.961Z,5.33
2018-03-28T08:30:22.461Z,6.77
2018-03-28T08:32:50.812Z,9.23
2018-03-28T08:35:18.292Z,7.40
2018-03-28T08:37:46.571Z,5.77
2018-03-28T08:40:14.109Z,8.10
2018-03-28T08:42:41.656Z,4.63
2018-03-28T08:45:09.297Z,6.77
2018-03-28T08:47:36.840Z,9.80
2018-03-28T08:50:04.349Z,8.40
2018-03-28T08:52:31.871Z,7.37
2018-03-28T08:55:00.156Z,8.83
2018-03-28T08:57:27.679Z,9.73
2018-03-28T08:59:55.192Z,6.40
2018-03-28T09:02:22.770Z,13.73
2018-03-28T09:04:50.281Z,7.70
2018-03-28T09:07:17.812Z,10.90
2018-03-28T09:09:45.361Z,7.10
2018-03-28T09:12:13.620Z,5.37
2018-03-28T09:14:41.146Z,12.87
2018-03-28T09:17:08.685Z,7.83
2018-03-28T09:19:36.225Z,15.70
2018-03-28T09:22:03.740Z,10.67
2018-03-28T09:24:31.241Z,8.07
2018-03-28T09:26:58.832Z,5.47
2018-03-28T09:29:26.323Z,9.30
2018-03-28T09:31:53.845Z,7.60
2018-03-28T09:34:21.363Z,7.03
2018-03-28T09:36:49.627Z,6.10
2018-03-28T09:39:17.133Z,7.63
2018-03-28T09:41:44.679Z,13.00
2018-03-28T09:44:12.181Z,4.90
2018-03-28T09:46:39.699Z,7.87
2018-03-28T09:49:07.202Z,8.57
2018-03-28T09:51:34.710Z,9.37
2018-03-28T09:54:02.220Z,10.93
2018-03-28T09:56:29.776Z,10.03
2018-03-28T09:58:57.318Z,11.70
2018-03-28T10:01:29.803Z,7.83
2018-03-28T10:04:02.912Z,6.60
2018-03-28T10:06:30.456Z,11.60
2018-03-28T10:08:57.947Z,6.63
2018-03-28T10:11:26.221Z,8.40
2018-03-28T10:13:54.515Z,6.13
2018-03-28T10:16:22.058Z,5.97
2018-03-28T10:18:50.319Z,6.87
2018-03-28T10:21:17.857Z,3.80
2018-03-28T10:23:45.359Z,6.50
2018-03-28T10:26:13.669Z,7.07
2018-03-28T10:28:41.200Z,6.17
2018-03-28T10:31:08.717Z,5.37
2018-03-28T10:33:36.237Z,4.00
2018-03-28T10:36:03.731Z,5.17
2018-03-28T10:38:31.257Z,4.10
2018-03-28T10:40:59.021Z,3.30
2018-03-28T10:43:26.544Z,4.27
2018-03-28T10:46:01.447Z,5.90
2018-03-28T11:01:56.708Z,3.67
2018-03-28T11:04:24.967Z,6.03
2018-03-28T11:06:52.527Z,4.70
2018-03-28T11:09:20.077Z,3.13
2018-03-28T11:11:47.628Z,11.13
2018-03-28T11:14:15.178Z,5.23
2018-03-28T11:16:42.730Z,12.80
2018-03-28T11:19:10.262Z,5.20
2018-03-28T11:21:37.756Z,5.50
2018-03-28T11:24:06.055Z,6.17
2018-03-28T11:26:33.552Z,3.40
2018-03-28T11:29:01.102Z,7.13
2018-03-28T11:31:28.634Z,6.00
2018-03-28T11:33:56.159Z,7.60
2018-03-28T11:36:23.669Z,4.43
2018-03-28T11:38:51.207Z,4.80
2018-03-28T11:41:18.727Z,4.33
2018-03-28T11:43:46.257Z,8.00
2018-03-28T11:46:13.789Z,5.50
2018-03-28T11:48:41.298Z,9.20
2018-03-28T11:51:08.815Z,4.83
2018-03-28T11:53:36.329Z,5.60
2018-03-28T11:56:03.846Z,3.23
2018-03-28T11:58:31.359Z,3.93
2018-03-28T12:00:59.648Z,6.50
2018-03-28T12:03:27.237Z,5.70
2018-03-28T12:05:54.768Z,3.73
2018-03-28T12:08:22.296Z,6.53
2018-03-28T12:10:49.833Z,5.90
2018-03-28T12:13:17.350Z,11.93
2018-03-28T12:15:44.920Z,4.53
2018-03-28T12:18:12.428Z,6.93
2018-03-28T12:20:39.968Z,3.50
2018-03-28T12:23:07.531Z,6.33
2018-03-28T12:25:35.066Z,8.40
2018-03-28T12:28:02.598Z,4.13
2018-03-28T12:30:30.149Z,4.40
2018-03-28T12:32:57.655Z,5.07
2018-03-28T12:35:25.194Z,4.67
2018-03-28T12:37:52.723Z,10.77
2018-03-28T12:40:21.009Z,4.40
2018-03-28T12:42:48.771Z,6.17
2018-03-28T12:45:16.323Z,10.70
2018-03-28T12:47:44.610Z,4.43
2018-03-28T12:50:12.161Z,5.70
2018-03-28T12:52:40.558Z,3.43
2018-03-28T12:55:08.081Z,7.97
2018-03-28T12:57:35.606Z,2.87
2018-03-28T13:00:03.108Z,6.33
2018-03-28T13:02:31.433Z,6.07
2018-03-28T13:04:59.708Z,4.10
2018-03-28T13:07:27.231Z,8.30
2018-03-28T13:09:55.527Z,7.73
2018-03-28T13:12:23.024Z,5.23
2018-03-28T13:14:50.643Z,8.27
2018-03-28T13:17:18.173Z,7.90
2018-03-28T13:19:45.686Z,4.33
2018-03-28T13:22:13.235Z,4.13
2018-03-28T13:24:40.774Z,5.70
2018-03-28T13:27:08.300Z,15.53
2018-03-28T13:29:35.835Z,8.00
2018-03-28T13:32:03.350Z,4.40
2018-03-28T13:34:30.929Z,16.23
2018-03-28T13:36:58.427Z,4.80
2018-03-28T13:39:25.960Z,5.77
2018-03-28T13:41:53.466Z,7.20
2018-03-28T13:44:20.995Z,7.77
2018-03-28T13:46:48.504Z,9.83
2018-03-28T13:49:16.011Z,5.50
2018-03-28T13:51:43.517Z,4.97
2018-03-28T13:54:11.021Z,5.30
2018-03-28T13:56:38.521Z,8.60
2018-03-28T13:59:06.044Z,7.60
2018-03-28T14:01:33.566Z,6.43
2018-03-28T14:04:01.076Z,4.53
2018-03-28T14:06:28.622Z,3.70
2018-03-28T14:08:56.133Z,4.20
2018-03-28T14:11:23.639Z,5.07
2018-03-28T14:13:51.191Z,3.87
2018-03-28T14:16:18.850Z,3.97
2018-03-28T14:18:46.378Z,5.40
2018-03-28T14:21:13.936Z,5.57
2018-03-28T14:23:41.460Z,3.67
2018-03-28T14:26:10.347Z,3.87
2018-03-28T14:28:38.633Z,4.77
2018-03-28T14:31:06.932Z,2.73
2018-03-28T14:33:34.461Z,3.07
2018-03-28T14:36:02.756Z,2.93
2018-03-28T14:38:30.584Z,4.37
2018-03-28T14:40:58.108Z,2.67
2018-03-28T14:43:25.645Z,3.83
2018-03-28T14:45:53.160Z,3.50
2018-03-28T14:48:20.696Z,2.50
2018-03-28T14:50:48.245Z,3.27
2018-03-28T14:53:15.755Z,4.73
2018-03-28T14:55:44.056Z,3.60
2018-03-28T14:58:11.561Z,2.00
2018-03-28T15:00:39.103Z,2.13
2018-03-28T15:03:06.619Z,5.30
2018-03-28T15:05:34.892Z,3.20
2018-03-28T15:08:02.438Z,2.77
2018-03-28T15:10:30.721Z,2.57
2018-03-28T15:12:59.008Z,2.57
2018-03-28T15:15:26.530Z,2.10
2018-03-28T15:17:54.050Z,3.63
2018-03-28T15:20:21.881Z,4.00
2018-03-28T15:22:50.191Z,3.43
2018-03-28T15:25:18.471Z,4.10
2018-03-28T15:27:45.972Z,4.80
2018-03-28T15:30:13.493Z,6.10
2018-03-28T15:32:41.095Z,4.93
2018-03-28T15:35:08.571Z,5.40
2018-03-28T15:37:36.123Z,4.63
2018-03-28T15:40:04.440Z,5.50
2018-03-28T15:42:31.947Z,7.40
2018-03-28T15:44:59.534Z,14.20
2018-03-28T15:47:27.022Z,13.43
2018-03-28T15:49:54.555Z,5.17
2018-03-28T15:52:22.092Z,3.90
2018-03-28T15:54:49.645Z,4.00
2018-03-28T15:57:17.180Z,8.13
2018-03-28T15:59:44.734Z,3.70
2018-03-28T16:02:12.282Z,3.27
2018-03-28T16:04:39.822Z,3.40
2018-03-28T16:07:07.335Z,4.50
2018-03-28T16:09:34.852Z,2.17
2018-03-28T16:12:02.381Z,3.00
2018-03-28T16:14:29.910Z,2.87
2018-03-28T16:16:57.425Z,3.30
2018-03-28T16:19:24.943Z,2.10
2018-03-28T16:21:52.484Z,2.73
2018-03-28T16:24:19.993Z,2.83
2018-03-28T16:26:47.522Z,2.33
2018-03-28T16:29:15.791Z,2.83
2018-03-28T16:31:44.104Z,4.67
2018-03-28T16:34:11.625Z,2.00
2018-03-28T16:36:39.909Z,6.73
2018-03-28T16:39:08.197Z,6.60
2018-03-28T16:41:36.498Z,3.30
2018-03-28T16:44:13.787Z,1.30
2018-03-28T16:46:41.311Z,2.87
2018-03-28T16:49:09.610Z,2.20
2018-03-28T16:51:37.109Z,8.33
2018-03-28T16:54:04.655Z,1.37
2018-03-28T16:56:32.160Z,1.73
2018-03-28T16:59:00.468Z,5.10
2018-03-28T17:01:27.984Z,2.50
2018-03-28T17:03:56.295Z,3.70
2018-03-28T17:06:23.878Z,0.63
2018-03-28T17:08:51.425Z,0.80
2018-03-28T17:11:18.955Z,1.57
2018-03-28T17:13:46.448Z,2.37
2018-03-28T17:16:13.979Z,0.70
2018-03-28T17:18:42.269Z,1.00
2018-03-28T17:21:09.793Z,1.70
2018-03-28T17:23:37.335Z,2.20
2018-03-28T17:26:04.857Z,2.83
2018-03-28T17:28:32.421Z,13.07
2018-03-28T17:30:59.940Z,24.53
2018-03-28T17:33:28.270Z,9.90
2018-03-28T17:35:55.794Z,10.40
2018-03-28T17:38:23.299Z,43.73
2018-03-28T17:40:50.872Z,58.17
2018-03-28T17:43:18.395Z,8.10
2018-03-28T17:45:45.975Z,14.73
2018-03-28T17:48:13.510Z,11.87
2018-03-28T17:50:41.131Z,18.80
2018-03-28T17:53:08.732Z,9.53
2018-03-28T17:55:36.289Z,4.13
2018-03-28T17:58:03.788Z,11.80
2018-03-28T18:00:31.408Z,2.20
2018-03-28T18:02:58.933Z,3.40
2018-03-28T18:05:27.247Z,4.07
2018-03-28T18:07:54.808Z,2.40
2018-03-28T18:10:22.394Z,2.20
2018-03-28T18:12:49.953Z,2.73
2018-03-28T18:15:17.452Z,1.87
2018-03-28T18:17:45.719Z,2.13
2018-03-28T18:20:14.134Z,17.00
2018-03-28T18:22:41.799Z,13.33
2018-03-28T18:25:09.327Z,7.17
2018-03-28T18:27:37.626Z,21.60
2018-03-28T18:30:05.149Z,3.03
2018-03-28T18:32:33.448Z,8.20
2018-03-28T18:35:00.977Z,6.57
2018-03-28T18:37:28.536Z,4.43
2018-03-28T18:39:56.058Z,4.80
2018-03-28T18:42:23.588Z,9.17
2018-03-28T18:44:51.103Z,4.10
2018-03-28T18:47:18.617Z,4.33
2018-03-28T18:49:46.114Z,5.70
2018-03-28T18:52:13.676Z,2.60
2018-03-28T18:54:41.214Z,3.30
2018-03-28T18:57:08.723Z,11.80
2018-03-28T18:59:37.032Z,4.07
2018-03-28T19:02:04.524Z,5.13
2018-03-28T19:04:32.060Z,3.33
2018-03-28T19:06:59.548Z,2.80
2018-03-28T19:09:27.075Z,2.97
2018-03-28T19:11:54.586Z,3.57
2018-03-28T19:14:22.918Z,3.70
2018-03-28T19:16:50.439Z,3.60
2018-03-28T19:19:17.972Z,5.10
2018-03-28T19:21:45.490Z,3.53
2018-03-28T19:24:13.054Z,3.83
2018-03-28T19:26:40.594Z,3.80
2018-03-28T19:29:08.111Z,2.97
2018-03-28T19:31:36.384Z,3.00
2018-03-28T19:34:04.722Z,10.67
2018-03-28T19:36:32.221Z,1.90
2018-03-28T19:38:59.769Z,1.90
2018-03-28T19:41:27.269Z,2.27
2018-03-28T19:43:55.579Z,2.00
2018-03-28T19:46:23.086Z,3.40
2018-03-28T19:48:51.396Z,8.63
2018-03-28T19:51:19.058Z,2.47
2018-03-28T19:53:46.567Z,2.87
2018-03-28T19:56:14.096Z,5.63
2018-03-28T19:58:41.617Z,3.63
2018-03-28T20:01:09.188Z,2.53
2018-03-28T20:03:36.709Z,3.70
2018-03-28T20:06:05.029Z,2.90
2018-03-28T20:08:32.567Z,3.67
2018-03-28T20:11:00.130Z,2.43
2018-03-28T20:13:27.659Z,2.60
2018-03-28T20:15:55.224Z,2.20
2018-03-28T20:18:23.528Z,9.00
2018-03-28T20:20:51.072Z,7.23
2018-03-28T20:23:19.370Z,2.17
2018-03-28T20:25:46.918Z,10.13
2018-03-28T20:28:14.485Z,9.63
2018-03-28T20:30:42.014Z,3.50
2018-03-28T20:33:10.343Z,1.83
2018-03-28T20:35:37.880Z,2.13
2018-03-28T20:38:05.441Z,2.63
2018-03-28T20:40:32.944Z,2.10
2018-03-28T20:43:00.487Z,3.70
2018-03-28T20:45:28.055Z,4.10
2018-03-28T20:47:55.574Z,2.70
2018-03-28T20:50:23.134Z,3.43
2018-03-28T20:52:50.666Z,3.10
2018-03-28T20:55:18.973Z,2.33
2018-03-28T20:57:48.262Z,2.30
2018-03-28T21:00:15.778Z,2.43
2018-03-28T21:02:43.301Z,1.80
2018-03-28T21:05:10.821Z,2.03
2018-03-28T21:07:39.133Z,2.08
2018-03-28T21:10:06.663Z,2.33
2018-03-28T21:12:34.932Z,1.60
2018-03-28T21:15:03.236Z,2.17
2018-03-28T21:17:30.782Z,1.90
2018-03-28T21:19:58.311Z,2.45
2018-03-28T21:22:25.835Z,2.80
2018-03-28T21:24:53.346Z,1.75
2018-03-28T21:27:20.893Z,2.50
2018-03-28T21:29:49.201Z,1.90
2018-03-28T21:32:16.694Z,1.80
2018-03-28T21:34:44.232Z,1.97
2018-03-28T21:37:11.755Z,2.33
2018-03-28T21:39:40.047Z,1.40
2018-03-28T21:42:07.567Z,1.80
2018-03-28T21:44:35.070Z,1.70
2018-03-28T21:47:02.588Z,1.60
2018-03-28T21:49:30.124Z,2.10
2018-03-28T21:51:57.637Z,1.98
2018-03-28T21:54:25.192Z,2.22
2018-03-28T21:56:53.457Z,2.45
2018-03-28T21:59:21.753Z,1.80
2018-03-28T22:01:49.312Z,1.87
2018-03-28T22:04:16.831Z,1.92
2018-03-28T22:06:44.366Z,1.60
2018-03-28T22:09:11.915Z,1.35
2018-03-28T22:11:39.424Z,1.40
2018-03-28T22:14:07.746Z,1.45
2018-03-28T22:16:35.253Z,1.60
2018-03-28T22:19:03.559Z,1.73
2018-03-28T22:21:31.079Z,1.80
2018-03-28T22:23:58.596Z,1.25
2018-03-28T22:26:26.148Z,1.70
2018-03-28T22:28:53.657Z,1.30
2018-03-28T22:31:21.158Z,1.50
2018-03-28T22:33:48.711Z,1.65
2018-03-28T22:36:16.234Z,1.90
2018-03-28T22:38:44.542Z,1.80
2018-03-28T22:41:12.061Z,1.90
2018-03-28T22:43:39.610Z,1.80
2018-03-28T22:46:07.105Z,1.95
2018-03-28T22:48:35.389Z,2.08
2018-03-28T22:51:03.702Z,2.50
2018-03-28T22:53:31.242Z,2.00
2018-03-28T22:55:58.738Z,2.03
2018-03-28T22:58:26.270Z,2.80
2018-03-28T23:00:53.792Z,2.43
2018-03-28T23:03:22.086Z,3.35
2018-03-28T23:05:49.616Z,2.80
2018-03-28T23:08:17.908Z,3.30
2018-03-28T23:10:46.197Z,2.90
2018-03-28T23:13:13.699Z,3.53
2018-03-28T23:15:41.209Z,4.25
2018-03-28T23:18:08.757Z,2.80
2018-03-28T23:20:37.053Z,3.67
2018-03-28T23:23:04.580Z,3.33
2018-03-28T23:25:32.887Z,3.70
2018-03-28T23:28:00.395Z,3.40
2018-03-28T23:30:27.908Z,4.82
2018-03-28T23:32:55.459Z,3.20
2018-03-28T23:35:22.979Z,3.30
2018-03-28T23:37:50.508Z,6.10
2018-03-28T23:40:18.042Z,3.67
2018-03-28T23:42:45.621Z,4.72
2018-03-28T23:45:13.885Z,3.92
2018-03-28T23:47:41.398Z,4.28
2018-03-28T23:50:08.938Z,3.87
2018-03-28T23:52:36.469Z,3.72
2018-03-28T23:55:03.997Z,3.67
2018-03-28T23:57:32.302Z,3.20
2018-03-28T23:59:59.829Z,3.90
